Time;durP1;ratioP1;P1;durP2;ratioP2;P2;SDS_P1;SDS_P2;PMS_P1;PMS_P2;Temp;Humidity;BMP_temperature;BMP_pressure;BME280_temperature;BME280_humidity;BME280_pressure;Samples;Min_cycle;Max_cycle;Signal;HPM_P1;HPM_P2
2023/03/27 00:05:41;;;;;;;2.70;2.30;;;;;;;10.97;59.04;98528.72;5090309;28;20253;-52
2023/03/27 00:08:41;;;;;;;5.60;2.50;;;;;;;11.02;58.98;98524.19;5091446;28;20195;-50
2023/03/27 00:11:54;;;;;;;2.60;2.40;;;;;;;10.74;60.08;98520.25;5091025;28;20779;-51
2023/03/27 00:14:55;;;;;;;3.10;2.40;;;;;;;10.77;59.73;98512.31;5091359;28;20286;-51
2023/03/27 00:23:52;;;;;;;6.20;2.73;;;;;;;10.53;60.46;98510.81;5089995;28;20204;-50
2023/03/27 00:29:52;;;;;;;2.17;2.00;;;;;;;10.58;60.31;98503.69;5090464;28;20203;-51
2023/03/27 00:35:57;;;;;;;3.30;2.00;;;;;;;10.67;59.64;98513.66;5089619;28;20211;-50
2023/03/27 00:38:54;;;;;;;2.57;2.37;;;;;;;10.70;59.26;98508.34;5091042;28;20946;-51
2023/03/27 00:41:24;;;;;;;3.90;2.93;;;;;;;10.73;58.60;98508.16;5090398;28;20230;-51
2023/03/27 00:44:36;;;;;;;;;;;;;;;;;;;;;
2023/03/27 00:47:37;;;;;;;4.97;3.10;;;;;;;10.72;59.43;98501.28;5089945;28;20677;-53
2023/03/27 00:50:39;;;;;;;3.97;3.27;;;;;;;10.77;59.09;98482.94;5090700;28;20191;-53
2023/03/27 00:53:56;;;;;;;6.60;4.40;;;;;;;10.79;59.70;98487.16;5090807;28;20198;-52
2023/03/27 00:56:39;;;;;;;7.20;3.77;;;;;;;10.70;60.10;98477.19;5090260;28;20195;-51
2023/03/27 00:59:41;;;;;;;7.87;3.73;;;;;;;10.60;60.82;98468.16;5089805;28;20225;-51
2023/03/27 01:02:42;;;;;;;7.70;2.70;;;;;;;10.60;60.92;98457.75;5090432;28;20222;-50
2023/03/27 01:05:22;;;;;;;3.23;2.57;;;;;;;10.60;61.36;98455.19;5090379;28;20188;-51
2023/03/27 01:11:39;;;;;;;4.10;2.77;;;;;;;10.81;61.34;98448.16;5089206;28;20227;-52
2023/03/27 01:14:46;;;;;;;3.97;2.50;;;;;;;10.77;61.19;98455.22;5090528;28;20643;-50
2023/03/27 01:18:09;;;;;;;4.33;2.30;;;;;;;10.92;60.75;98456.28;5089739;28;20195;-51
2023/03/27 01:21:36;;;;;;;6.53;2.87;;;;;;;10.67;61.40;98456.56;5090148;28;20203;-52
2023/03/27 01:25:09;;;;;;;5.83;3.00;;;;;;;10.52;62.66;98442.53;5021587;28;20197;-50
2023/03/27 01:28:33;;;;;;;3.10;2.70;;;;;;;10.63;61.81;98439.44;5089852;28;20256;-51
2023/03/27 01:31:37;;;;;;;4.77;3.00;;;;;;;10.73;62.08;98430.31;5090084;28;20192;-51
2023/03/27 01:38:11;;;;;;;8.60;3.47;;;;;;;10.80;61.80;98431.72;5064247;28;20230;-51
2023/03/27 01:44:57;;;;;;;5.63;3.23;;;;;;;10.65;62.81;98416.03;5087720;28;20290;-52
2023/03/27 01:48:17;;;;;;;5.93;2.73;;;;;;;10.67;62.93;98412.44;5089925;28;20275;-50
2023/03/27 01:51:13;;;;;;;4.30;3.40;;;;;;;10.67;63.48;98406.41;5089547;28;20234;-50
2023/03/27 01:57:47;;;;;;;6.43;3.73;;;;;;;10.78;61.24;98409.34;5089440;28;20195;-52
2023/03/27 02:00:34;;;;;;;3.67;3.27;;;;;;;10.77;62.60;98405.91;5087641;28;20309;-51
2023/03/27 02:03:44;;;;;;;4.13;3.30;;;;;;;10.79;62.01;98409.28;5089359;28;20202;-50
2023/03/27 02:06:39;;;;;;;3.63;3.33;;;;;;;10.76;63.36;98405.97;5089656;28;20297;-51
2023/03/27 02:09:57;;;;;;;5.87;3.67;;;;;;;10.71;65.36;98410.56;5089060;28;20195;-51
2023/03/27 02:12:51;;;;;;;5.90;3.50;;;;;;;10.67;66.69;98398.63;5049086;28;20203;-52
2023/03/27 02:22:07;;;;;;;6.80;4.27;;;;;;;10.64;70.42;98394.41;5048265;28;20220;-52
2023/03/27 02:24:59;;;;;;;7.40;4.40;;;;;;;10.58;70.47;98386.94;5049346;28;20627;-51
2023/03/27 02:28:01;;;;;;;6.50;4.17;;;;;;;10.53;70.51;98371.56;5049268;28;20192;-51
2023/03/27 02:31:08;;;;;;;6.83;3.60;;;;;;;10.60;68.22;98374.75;5049401;28;20678;-51
2023/03/27 02:34:11;;;;;;;3.87;3.33;;;;;;;10.62;65.91;98385.03;5053296;28;20200;-51
2023/03/27 02:37:14;;;;;;;5.17;3.00;;;;;;;10.51;64.59;98367.34;5053374;28;20282;-50
2023/03/27 02:40:13;;;;;;;4.23;3.27;;;;;;;10.48;63.65;98364.94;5053151;28;20203;-50
2023/03/27 02:43:31;;;;;;;3.57;3.27;;;;;;;10.37;64.17;98359.41;5053146;28;20669;-50
2023/03/27 02:46:42;;;;;;;5.07;3.63;;;;;;;10.31;64.26;98354.47;5052380;28;20189;-52
2023/03/27 02:58:42;;;;;;;5.10;3.93;;;;;;;10.24;63.07;98355.69;5050560;28;20208;-52
2023/03/27 03:05:00;;;;;;;4.27;3.73;;;;;;;10.17;64.19;98353.31;5052500;28;20211;-51
2023/03/27 03:07:47;;;;;;;5.77;3.43;;;;;;;10.13;64.22;98354.41;5052628;28;20197;-52
2023/03/27 03:10:29;;;;;;;4.47;3.97;;;;;;;9.92;65.92;98342.41;5069446;28;20227;-51
2023/03/27 03:13:30;;;;;;;4.13;3.67;;;;;;;9.96;65.67;98343.94;5091740;28;20376;-51
2023/03/27 03:19:12;;;;;;;10.53;9.33;;;;;;;10.04;66.31;98349.63;5091959;28;20195;-51
2023/03/27 03:21:51;;;;;;;14.60;7.57;;;;;;;10.02;66.24;98354.03;5092745;28;20222;-52
2023/03/27 03:24:26;;;;;;;6.30;4.93;;;;;;;9.98;66.01;98336.09;5092461;28;20198;-52
2023/03/27 03:27:06;;;;;;;7.83;4.87;;;;;;;10.05;65.98;98346.09;5090742;28;20218;-51
2023/03/27 03:30:06;;;;;;;6.67;4.53;;;;;;;10.00;67.19;98342.91;5088944;28;20633;-51
2023/03/27 03:32:48;;;;;;;8.90;5.03;;;;;;;9.92;68.04;98337.22;5092253;28;20191;-49
2023/03/27 03:35:23;;;;;;;7.97;4.60;;;;;;;9.89;67.78;98316.63;5092279;28;20587;-52
2023/03/27 03:38:03;;;;;;;6.70;5.00;;;;;;;9.86;68.08;98311.56;5092366;28;20206;-50
2023/03/27 03:40:53;;;;;;;5.53;4.53;;;;;;;9.83;70.06;98306.50;5092342;28;20195;-51
2023/03/27 03:43:26;;;;;;;5.33;4.83;;;;;;;9.69;70.06;98303.72;5091927;28;20272;-51
2023/03/27 03:46:23;;;;;;;7.00;4.70;;;;;;;9.64;71.52;98313.44;5091834;28;20191;-50
2023/03/27 03:48:52;;;;;;;6.80;5.00;;;;;;;9.65;72.40;98310.78;5091953;28;20200;-51
2023/03/27 03:51:27;;;;;;;7.97;5.80;;;;;;;9.49;73.93;98296.81;5090803;28;20695;-51
2023/03/27 03:54:10;;;;;;;7.60;5.43;;;;;;;9.53;74.74;98303.53;5089595;28;20240;-50
2023/03/27 03:56:50;;;;;;;6.23;4.70;;;;;;;9.52;75.96;98307.03;5089897;28;20198;-50
2023/03/27 04:02:27;;;;;;;8.57;5.07;;;;;;;9.54;76.93;98300.06;5087963;28;20242;-52
2023/03/27 04:05:05;;;;;;;5.90;4.37;;;;;;;9.42;77.47;98295.41;5086935;28;20599;-51
2023/03/27 04:07:38;;;;;;;5.13;4.33;;;;;;;9.52;77.50;98301.88;5087812;28;20253;-51
2023/03/27 04:10:39;;;;;;;8.10;4.87;;;;;;;9.50;78.47;98292.47;5089732;28;20248;-53
2023/03/27 04:13:17;;;;;;;5.57;3.90;;;;;;;9.33;79.87;98298.41;5090447;28;20221;-50
2023/03/27 04:16:02;;;;;;;5.33;4.53;;;;;;;9.36;80.85;98317.25;5088348;28;20298;-50
2023/03/27 04:18:45;;;;;;;5.97;4.07;;;;;;;9.29;81.94;98302.00;5089035;28;20192;-50
2023/03/27 04:21:32;;;;;;;9.23;4.73;;;;;;;9.27;82.83;98296.91;5089293;28;20195;-51
2023/03/27 04:24:22;;;;;;;5.03;4.53;;;;;;;9.27;82.47;98277.94;5091508;28;20271;-51
2023/03/27 04:26:51;;;;;;;8.60;4.90;;;;;;;9.21;84.25;98283.38;5086954;28;20195;-50
2023/03/27 04:29:29;;;;;;;8.43;5.43;;;;;;;9.25;84.49;98284.94;5085842;28;20603;-49
2023/03/27 04:32:05;;;;;;;6.17;5.57;;;;;;;9.28;85.69;98283.06;5085715;28;20230;-50
2023/03/27 04:34:49;;;;;;;26.97;9.10;;;;;;;9.27;90.55;98281.38;5098043;28;20222;-50
2023/03/27 04:37:28;;;;;;;19.10;7.43;;;;;;;9.42;95.45;98274.69;5097564;28;20230;-50
2023/03/27 04:40:12;;;;;;;10.03;5.87;;;;;;;9.55;89.31;98282.75;5098008;28;20262;-50
2023/03/27 04:43:00;;;;;;;8.73;5.90;;;;;;;9.67;86.00;98277.03;5089383;28;20276;-50
2023/03/27 04:45:45;;;;;;;9.10;5.47;;;;;;;9.65;84.94;98276.25;5106653;28;20705;-50
2023/03/27 04:48:26;;;;;;;7.03;5.17;;;;;;;9.69;85.00;98283.00;5109809;28;20614;-50
2023/03/27 04:50:57;;;;;;;12.93;5.87;;;;;;;9.71;84.74;98286.34;5104148;28;20245;-50
2023/03/27 04:53:28;;;;;;;7.40;5.90;;;;;;;9.74;84.04;98292.22;5084842;28;20223;-51
2023/03/27 04:55:57;;;;;;;8.60;5.97;;;;;;;9.78;83.88;98282.56;5088531;28;20333;-50
2023/03/27 04:58:28;;;;;;;8.97;6.10;;;;;;;9.79;84.14;98279.91;5085977;28;20222;-50
2023/03/27 05:01:04;;;;;;;12.40;6.73;;;;;;;9.82;84.22;98284.94;5088264;28;20394;-51
2023/03/27 05:03:39;;;;;;;11.93;6.70;;;;;;;9.84;84.34;98279.69;5087046;28;20226;-51
2023/03/27 05:06:14;;;;;;;11.43;7.40;;;;;;;9.87;84.82;98274.38;5088264;28;20643;-51
2023/03/27 05:15:24;;;;;;;12.07;6.47;;;;;;;10.53;79.18;98282.53;5087208;28;20199;-52
2023/03/27 05:18:01;;;;;;;6.87;6.13;;;;;;;10.90;76.28;98282.41;5090387;28;20557;-51
2023/03/27 05:32:48;;;;;;;7.80;7.00;;;;;;;16.24;52.30;98262.13;5066142;28;20264;-52
2023/03/27 05:35:41;;;;;;;9.00;6.27;;;;;;;17.61;48.54;98267.56;5064288;28;20203;-54
2023/03/27 05:38:46;;;;;;;9.20;7.30;;;;;;;18.41;45.50;98278.75;5069015;28;20195;-52
2023/03/27 05:41:37;;;;;;;9.33;8.43;;;;;;;18.52;46.06;98268.22;5069707;28;20920;-52
2023/03/27 05:44:33;;;;;;;13.00;9.47;;;;;;;18.74;46.12;98257.66;5069474;28;20200;-52
2023/03/27 05:47:21;;;;;;;12.50;9.67;;;;;;;19.09;45.93;98260.00;5069623;28;20224;-52
2023/03/27 05:50:15;;;;;;;13.73;10.25;;;;;;;19.06;45.89;98257.66;5085109;28;20322;-51
2023/03/27 05:53:14;;;;;;;15.20;10.25;;;;;;;18.80;46.18;98265.06;5068549;28;20199;-51
2023/03/27 05:56:19;;;;;;;13.45;9.77;;;;;;;19.29;45.90;98268.88;5069471;28;20192;-51
2023/03/27 06:02:28;;;;;;;13.50;11.32;;;;;;;21.17;42.43;98267.16;5079949;28;20205;-52
2023/03/27 06:05:22;;;;;;;12.82;10.35;;;;;;;22.19;40.31;98262.84;5089266;28;20195;-52
2023/03/27 06:08:17;;;;;;;14.57;11.00;;;;;;;22.01;40.10;98246.94;5089072;28;20199;-51
2023/03/27 06:14:25;;;;;;;16.80;12.82;;;;;;;17.62;49.62;98232.53;5089549;28;20231;-50
2023/03/27 06:17:16;;;;;;;18.75;12.27;;;;;;;16.46;53.82;98230.81;5086216;28;20305;-52
2023/03/27 06:20:16;;;;;;;18.60;13.30;;;;;;;15.23;59.29;98231.69;5089562;28;20243;-53
2023/03/27 06:23:08;;;;;;;17.90;12.90;;;;;;;14.68;62.83;98227.53;5087501;28;20227;-54
2023/03/27 06:25:59;;;;;;;19.73;13.20;;;;;;;14.21;66.01;98216.72;5087818;28;20203;-52
2023/03/27 06:29:08;;;;;;;17.50;12.60;;;;;;;13.85;69.27;98219.88;5089362;28;20191;-53
2023/03/27 06:32:06;;;;;;;20.77;13.37;;;;;;;13.53;71.67;98217.50;5088482;28;20203;-52
2023/03/27 06:34:57;;;;;;;15.60;12.50;;;;;;;13.25;73.14;98214.88;5089228;28;20199;-52
2023/03/27 06:37:45;;;;;;;18.13;13.53;;;;;;;12.98;76.41;98215.56;5089475;28;20196;-51
2023/03/27 06:40:40;;;;;;;22.13;13.57;;;;;;;13.31;74.86;98211.94;5088976;28;20582;-51
2023/03/27 06:43:26;;;;;;;18.20;12.93;;;;;;;13.42;73.92;98199.09;5086548;28;20306;-52
2023/03/27 06:46:14;;;;;;;18.40;14.40;;;;;;;13.84;74.49;98208.59;5089188;28;20191;-51
2023/03/27 06:52:27;;;;;;;16.57;12.57;;;;;;;18.52;53.50;98194.66;5087926;28;20195;-52
2023/03/27 06:57:55;;;;;;;18.63;12.37;;;;;;;18.97;50.48;98194.44;5094680;28;20233;-52
2023/03/27 07:00:34;;;;;;;13.93;12.43;;;;;;;18.64;50.79;98185.78;5085919;28;20311;-50
2023/03/27 07:03:27;;;;;;;16.23;13.13;;;;;;;18.33;52.26;98184.81;5085491;28;20223;-51
2023/03/27 07:06:34;;;;;;;18.77;13.67;;;;;;;18.35;52.57;98168.94;5085278;28;20292;-49
2023/03/27 07:09:40;;;;;;;15.02;12.40;;;;;;;19.72;49.06;98168.69;5084408;28;20214;-51
2023/03/27 07:12:22;;;;;;;18.75;12.63;;;;;;;19.76;48.40;98158.69;5086462;28;20223;-49
2023/03/27 07:15:27;;;;;;;17.23;12.77;;;;;;;20.41;47.23;98144.97;5087837;28;20223;-51
2023/03/27 07:18:21;;;;;;;18.30;13.27;;;;;;;21.49;44.56;98126.94;5090211;28;20648;-51
2023/03/27 07:20:53;;;;;;;13.43;12.02;;;;;;;21.60;43.96;98118.00;5090961;28;20195;-51
2023/03/27 07:23:31;;;;;;;14.82;13.30;;;;;;;21.88;43.55;98100.31;5091755;28;20294;-50
2023/03/27 07:26:25;;;;;;;14.52;13.13;;;;;;;22.15;43.05;98089.69;5091707;28;20195;-50
2023/03/27 07:29:21;;;;;;;17.25;13.95;;;;;;;22.38;42.38;98069.75;5075478;28;20210;-49
2023/03/27 07:32:07;;;;;;;17.90;13.23;;;;;;;22.86;41.65;98036.69;5078540;28;20743;-49
2023/03/27 07:37:52;;;;;;;14.45;12.88;;;;;;;24.39;38.82;98037.25;5070312;28;20652;-50
2023/03/27 07:43:27;;;;;;;15.18;13.63;;;;;;;23.40;40.19;97981.66;5073399;28;20277;-50
2023/03/27 07:46:24;;;;;;;15.82;13.77;;;;;;;21.25;44.56;97978.84;5091936;28;20203;-50
2023/03/27 07:49:28;;;;;;;21.27;14.98;;;;;;;19.82;48.30;97972.06;5091593;28;20199;-51
2023/03/27 07:55:21;;;;;;;18.38;14.77;;;;;;;16.69;61.14;97938.38;5090833;28;20214;-48
2023/03/27 07:58:12;;;;;;;21.63;16.00;;;;;;;16.06;66.34;97917.94;5091157;28;20199;-51
2023/03/27 08:01:07;;;;;;;21.47;15.90;;;;;;;16.09;67.42;97912.50;5091493;28;20235;-51
2023/03/27 08:03:56;;;;;;;19.43;15.57;;;;;;;16.26;67.24;97904.16;5091765;28;20226;-48
2023/03/27 08:06:45;;;;;;;22.50;15.00;;;;;;;17.79;61.73;97904.03;5091440;28;20199;-50
2023/03/27 08:09:39;;;;;;;20.13;15.57;;;;;;;18.62;57.28;97898.66;5090755;28;20195;-51
2023/03/27 08:12:11;;;;;;;24.83;16.23;;;;;;;17.87;59.38;97909.47;5091130;28;20203;-51
2023/03/27 08:15:24;;;;;;;21.20;15.43;;;;;;;17.09;62.63;97901.94;5089662;28;20203;-50
2023/03/27 08:18:35;;;;;;;21.40;15.83;;;;;;;16.45;66.92;97900.97;5089391;28;20207;-49
2023/03/27 08:21:04;;;;;;;22.00;16.87;;;;;;;16.12;69.19;97899.19;5087847;28;20679;-49
2023/03/27 08:23:36;;;;;;;23.97;16.07;;;;;;;16.08;70.24;97890.72;5085080;28;20314;-51
2023/03/27 08:26:20;;;;;;;19.63;15.57;;;;;;;15.83;72.15;97881.28;5089911;28;20211;-49
2023/03/27 08:28:52;;;;;;;24.37;16.00;;;;;;;15.68;73.80;97861.53;5087658;28;20219;-51
2023/03/27 08:31:51;;;;;;;20.53;15.73;;;;;;;15.83;73.99;97865.59;5089892;28;20219;-51
2023/03/27 08:37:34;;;;;;;22.83;16.50;;;;;;;16.21;73.15;97848.72;5069133;28;20776;-50
2023/03/27 08:40:14;;;;;;;25.37;17.27;;;;;;;16.35;73.71;97838.00;5078114;28;20218;-50
2023/03/27 08:42:51;;;;;;;24.10;16.83;;;;;;;16.64;73.01;97836.56;5086145;28;20227;-48
2023/03/27 08:45:54;;;;;;;;;;;;;;;;;;;;;
2023/03/27 08:48:33;;;;;;;23.03;16.80;;;;;;;17.94;67.36;97836.31;5086907;28;20231;-49
2023/03/27 08:51:22;;;;;;;24.93;17.47;;;;;;;18.01;67.34;97829.56;5086376;28;20240;-49
2023/03/27 09:00:09;;;;;;;23.83;17.77;;;;;;;18.00;70.11;97827.91;5088622;28;20208;-49
2023/03/27 09:06:22;;;;;;;22.90;17.53;;;;;;;18.30;68.02;97798.13;5084748;28;20256;-50
2023/03/27 09:12:36;;;;;;;18.80;16.00;;;;;;;18.73;66.71;97788.19;5086143;28;20850;-49
2023/03/27 09:24:47;;;;;;;18.30;13.35;;;;;;;20.08;56.93;97729.19;5126849;28;20212;-48
2023/03/27 09:27:51;;;;;;;12.40;11.10;;;;;;;20.51;55.20;97699.53;5126798;28;20676;-50
2023/03/27 09:34:22;;;;;;;9.70;8.90;;;;;;;21.52;50.17;97716.66;5126722;28;20233;-51
2023/03/27 09:37:38;;;;;;;10.60;9.70;;;;;;;22.15;49.11;97714.47;5126454;28;20202;-50
2023/03/27 09:40:42;;;;;;;13.88;8.43;;;;;;;22.36;46.97;97721.94;5126811;28;20218;-50
2023/03/27 09:43:42;;;;;;;9.10;7.68;;;;;;;22.63;44.75;97723.50;5126734;28;20197;-50
2023/03/27 09:46:42;;;;;;;5.80;5.30;;;;;;;22.79;41.71;97726.19;5126522;28;20964;-50
2023/03/27 09:49:44;;;;;;;7.45;5.80;;;;;;;22.72;41.51;97727.78;5126236;28;20649;-49
2023/03/27 09:52:54;;;;;;;5.80;5.40;;;;;;;22.54;41.75;97727.13;5126193;28;20210;-50
2023/03/27 10:02:23;;;;;;;7.03;5.45;;;;;;;21.99;42.12;97738.19;5125920;28;20240;-50
2023/03/27 10:05:30;;;;;;;5.13;4.72;;;;;;;21.83;41.31;97731.00;5126427;28;20685;-50
2023/03/27 10:08:57;;;;;;;5.90;5.50;;;;;;;21.79;41.49;97729.63;5126585;28;20681;-48
2023/03/27 10:12:06;;;;;;;7.28;6.55;;;;;;;21.85;41.68;97730.84;5125480;28;20581;-50
2023/03/27 10:14:44;;;;;;;17.38;14.20;;;;;;;21.61;47.35;97734.19;5120356;28;20249;-50
2023/03/27 10:17:33;;;;;;;17.80;15.40;;;;;;;21.27;50.25;97718.28;5123810;28;20218;-52
2023/03/27 10:20:12;;;;;;;20.73;15.13;;;;;;;21.00;51.72;97712.13;5121287;28;20240;-48
2023/03/27 10:23:11;;;;;;;20.88;17.58;;;;;;;20.80;52.18;97715.94;5122218;28;20296;-51
2023/03/27 10:26:27;;;;;;;20.30;15.15;;;;;;;20.54;53.17;97702.69;5121779;28;20304;-50
2023/03/27 10:29:43;;;;;;;;;;;;;;;;;;;;;
2023/03/27 10:32:26;;;;;;;23.73;16.80;;;;;;;20.19;54.39;97714.00;5113987;28;20978;-50
2023/03/27 10:38:25;;;;;;;20.13;15.63;;;;;;;20.20;54.46;97691.94;5106718;28;20264;-49
2023/03/27 10:40:55;;;;;;;21.15;14.27;;;;;;;20.33;54.10;97678.41;5097694;28;20219;-50
2023/03/27 10:43:43;;;;;;;17.45;15.05;;;;;;;20.46;53.71;97680.69;5091483;28;20634;-50
2023/03/27 10:46:38;;;;;;;19.55;13.80;;;;;;;20.32;53.51;97668.84;5091594;28;20290;-51
2023/03/27 10:52:39;;;;;;;17.33;13.20;;;;;;;20.59;52.77;97675.88;5090831;28;20203;-51
2023/03/27 10:55:43;;;;;;;19.05;14.27;;;;;;;20.48;53.06;97678.75;5090065;28;20747;-50
2023/03/27 10:58:49;;;;;;;16.02;13.70;;;;;;;20.55;52.81;97674.50;5091513;28;20683;-52
2023/03/27 11:02:04;;;;;;;13.90;12.52;;;;;;;20.57;52.52;97654.09;5091132;28;20297;-51
2023/03/27 11:08:24;;;;;;;13.68;12.23;;;;;;;20.81;51.86;97627.13;5097370;28;20209;-50
2023/03/27 11:11:05;;;;;;;16.77;11.50;;;;;;;20.93;51.12;97607.41;5110649;28;20244;-52
2023/03/27 11:13:54;;;;;;;17.25;13.48;;;;;;;21.12;50.91;97601.91;5108102;28;20195;-51
2023/03/27 11:16:43;;;;;;;16.70;12.93;;;;;;;21.34;50.34;97585.56;5108971;28;20203;-51
2023/03/27 11:19:46;;;;;;;13.98;11.88;;;;;;;21.76;49.19;97573.34;5107515;28;20195;-50
2023/03/27 11:22:51;;;;;;;13.15;11.77;;;;;;;21.99;48.67;97558.56;5107740;28;20243;-49
2023/03/27 11:25:47;;;;;;;12.60;10.73;;;;;;;21.98;47.64;97546.31;5107588;28;20202;-50
2023/03/27 11:28:38;;;;;;;14.27;10.23;;;;;;;22.04;47.23;97532.47;5107942;28;20194;-51
2023/03/27 11:31:35;;;;;;;14.40;10.60;;;;;;;22.16;47.07;97515.31;5109321;28;20182;-51
2023/03/27 11:34:31;;;;;;;10.30;9.20;;;;;;;22.34;46.79;97510.69;5108929;28;20199;-52
2023/03/27 11:37:15;;;;;;;14.45;10.70;;;;;;;22.37;46.69;97497.13;5108559;28;20573;-50
2023/03/27 11:39:54;;;;;;;10.02;8.65;;;;;;;22.45;46.39;97475.97;5105914;28;20735;-50
2023/03/27 11:42:46;;;;;;;8.73;7.78;;;;;;;22.44;44.97;97465.56;5109540;28;20666;-50
2023/03/27 11:45:38;;;;;;;10.00;6.57;;;;;;;22.35;41.83;97462.09;5106937;28;20206;-49
2023/03/27 11:48:53;;;;;;;6.97;6.28;;;;;;;22.11;41.91;97467.44;5109122;28;20199;-50
2023/03/27 11:51:56;;;;;;;7.30;6.70;;;;;;;21.86;42.49;97469.22;5108738;28;20191;-51
2023/03/27 11:54:43;;;;;;;5.97;5.47;;;;;;;21.95;41.50;97462.13;5108713;28;20202;-51
2023/03/27 11:57:26;;;;;;;5.60;5.15;;;;;;;21.93;40.85;97456.16;5107401;28;20558;-51
2023/03/27 12:00:28;;;;;;;6.35;5.85;;;;;;;21.77;41.07;97457.00;5107172;28;20206;-51
2023/03/27 12:03:37;;;;;;;10.70;6.43;;;;;;;21.87;40.73;97454.19;5107712;28;20190;-51
2023/03/27 12:06:34;;;;;;;10.73;5.13;;;;;;;22.08;40.35;97436.06;5107453;28;20588;-51
2023/03/27 12:09:46;;;;;;;6.88;5.70;;;;;;;22.34;39.67;97433.22;5108290;28;20206;-55
2023/03/27 12:12:50;;;;;;;5.82;4.82;;;;;;;22.58;38.46;97437.59;5106852;28;20222;-51
2023/03/27 12:15:52;;;;;;;5.55;5.13;;;;;;;22.78;37.33;97428.31;5107967;28;20751;-51
2023/03/27 12:18:40;;;;;;;6.57;4.75;;;;;;;22.84;36.57;97419.69;5107475;28;20233;-50
2023/03/27 12:21:38;;;;;;;7.43;4.65;;;;;;;22.95;36.56;97424.59;5108322;28;20226;-53
2023/03/27 12:27:43;;;;;;;22.88;6.57;;;;;;;22.73;36.29;97409.44;5103334;28;20389;-51
2023/03/27 12:30:35;;;;;;;17.55;5.43;;;;;;;22.82;36.26;97397.88;5105956;28;20214;-51
2023/03/27 12:33:42;;;;;;;8.38;5.20;;;;;;;22.78;35.98;97389.47;5106341;28;20258;-51
2023/03/27 12:36:47;;;;;;;7.18;5.47;;;;;;;22.83;36.25;97394.22;5101464;28;20234;-52
2023/03/27 12:39:50;;;;;;;5.28;4.75;;;;;;;22.97;36.24;97396.16;5108562;28;20198;-52
2023/03/27 12:42:52;;;;;;;7.22;5.10;;;;;;;23.06;35.85;97387.16;5108010;28;20213;-50
2023/03/27 12:45:31;;;;;;;5.28;4.65;;;;;;;23.14;35.51;97375.69;5107148;28;20706;-50
2023/03/27 12:48:20;;;;;;;4.80;4.40;;;;;;;23.07;35.32;97380.88;5106014;28;20198;-51
2023/03/27 12:51:03;;;;;;;8.02;4.40;;;;;;;22.87;35.29;97377.03;5107057;28;20191;-50
2023/03/27 12:54:26;;;;;;;4.70;4.38;;;;;;;22.75;35.73;97370.44;5105284;28;20678;-52
2023/03/27 12:57:16;;;;;;;4.72;4.43;;;;;;;22.67;35.61;97359.91;5070695;28;20770;-52
2023/03/27 13:00:26;;;;;;;4.75;4.35;;;;;;;22.61;35.99;97360.56;5109422;28;20203;-52
2023/03/27 13:07:00;;;;;;;4.22;3.85;;;;;;;22.50;36.19;97353.84;5108622;28;20286;-51
2023/03/27 13:13:33;;;;;;;7.00;4.40;;;;;;;22.26;36.08;97357.41;5105200;28;20701;-51
2023/03/27 13:20:50;;;;;;;;;;;;;;;;;;;;;
2023/03/27 13:30:10;;;;;;;3.92;3.40;;;;;;;21.95;34.57;97374.94;5106114;28;20247;-50
2023/03/27 13:36:49;;;;;;;12.13;4.60;;;;;;;21.41;36.22;97385.22;5108084;28;20199;-51
2023/03/27 13:39:54;;;;;;;47.20;6.60;;;;;;;21.03;37.69;97403.25;5108515;28;20201;-51
2023/03/27 13:42:47;;;;;;;32.58;5.85;;;;;;;20.59;40.86;97422.84;5108985;28;20222;-50
2023/03/27 13:49:26;;;;;;;25.67;4.75;;;;;;;19.60;46.31;97510.97;5107201;28;20199;-51
2023/03/27 13:59:22;;;;;;;8.77;1.63;;;;;;;16.44;67.02;97577.22;5106749;28;20220;-50
2023/03/27 14:02:04;;;;;;;6.93;1.40;;;;;;;15.74;77.49;97583.81;5097567;28;20591;-51
2023/03/27 14:05:11;;;;;;;4.30;1.00;;;;;;;14.83;84.61;97610.13;5105178;28;20214;-49
2023/03/27 14:08:39;;;;;;;4.10;1.20;;;;;;;14.35;92.04;97652.91;5114833;28;20194;-51
2023/03/27 14:11:46;;;;;;;2.10;0.87;;;;;;;13.80;92.94;97649.09;5111143;28;20517;-50
2023/03/27 14:18:25;;;;;;;2.43;1.00;;;;;;;13.40;100.00;97659.75;5110638;28;20212;-50
2023/03/27 14:33:59;;;;;;;5.67;1.30;;;;;;;12.57;100.00;97761.72;5109638;28;20194;-50
2023/03/27 14:43:32;;;;;;;8.07;1.97;;;;;;;12.17;100.00;97805.88;5108926;28;20572;-51
2023/03/27 14:46:31;;;;;;;1.87;1.40;;;;;;;12.09;100.00;97802.91;5107010;28;20202;-50
2023/03/27 14:52:33;;;;;;;7.73;2.77;;;;;;;11.94;100.00;97822.06;5110926;28;20195;-50
2023/03/27 14:58:41;;;;;;;5.20;2.17;;;;;;;11.75;100.00;97824.94;5108821;28;20634;-51
2023/03/27 15:01:40;;;;;;;3.50;2.47;;;;;;;11.70;100.00;97842.53;5111249;28;20226;-50
2023/03/27 15:07:43;;;;;;;4.60;2.37;;;;;;;11.68;100.00;97823.59;5108145;28;20228;-50
2023/03/27 15:17:12;;;;;;;12.03;7.27;;;;;;;11.63;100.00;97769.31;5110046;28;20648;-50
2023/03/27 15:20:11;;;;;;;4.40;3.20;;;;;;;11.67;100.00;97774.31;5110915;28;20649;-51
2023/03/27 15:23:12;;;;;;;55.20;33.17;;;;;;;11.69;100.00;97744.72;5070409;28;20220;-52
2023/03/27 15:26:08;;;;;;;28.70;16.90;;;;;;;11.73;100.00;97727.19;5070998;28;20196;-50
2023/03/27 15:32:20;;;;;;;5.50;4.13;;;;;;;11.79;100.00;97617.66;5068392;28;20196;-50
2023/03/27 15:35:29;;;;;;;12.57;7.37;;;;;;;11.77;100.00;97557.97;5070510;28;20200;-52
2023/03/27 15:38:28;;;;;;;7.17;4.20;;;;;;;11.68;100.00;97566.34;5070474;28;20204;-51
2023/03/27 15:54:39;;;;;;;;;;;;;;;;;;;;;
2023/03/27 15:57:19;;;;;;;47.67;30.20;;;;;;;11.92;100.00;97649.75;5062431;28;20203;-49
2023/03/27 16:03:19;;;;;;;18.17;12.57;;;;;;;12.03;100.00;97680.25;5067889;28;20216;-51
2023/03/27 16:06:13;;;;;;;19.23;13.03;;;;;;;12.10;100.00;97686.72;5068633;28;20208;-49
2023/03/27 16:12:09;;;;;;;7.30;4.97;;;;;;;12.22;100.00;97678.97;5065986;28;20190;-50
2023/03/27 16:15:24;;;;;;;11.20;8.13;;;;;;;12.30;100.00;97666.28;5068992;28;20593;-51
2023/03/27 16:18:31;;;;;;;13.77;9.57;;;;;;;12.31;100.00;97657.56;5069524;28;20196;-51
2023/03/27 16:21:16;;;;;;;11.33;6.53;;;;;;;12.44;100.00;97667.16;5087743;28;20230;-50
2023/03/27 16:23:53;;;;;;;9.27;6.60;;;;;;;12.33;100.00;97658.28;5106818;28;20199;-50
2023/03/27 16:26:32;;;;;;;12.53;8.67;;;;;;;12.38;100.00;97652.81;5108296;28;20214;-50
2023/03/27 16:29:17;;;;;;;16.10;8.77;;;;;;;12.40;100.00;97637.09;5106543;28;20201;-51
2023/03/27 16:31:57;;;;;;;16.90;11.17;;;;;;;12.38;100.00;97639.78;5108075;28;20205;-50
2023/03/27 16:34:31;;;;;;;23.47;12.93;;;;;;;12.41;100.00;97629.19;5107947;28;20198;-49
2023/03/27 16:37:17;;;;;;;44.37;24.03;;;;;;;12.35;100.00;97627.81;5108046;28;20229;-49
2023/03/27 16:40:10;;;;;;;44.90;22.80;;;;;;;12.46;100.00;97624.50;5104321;28;20263;-50
2023/03/27 16:43:05;;;;;;;22.60;13.77;;;;;;;12.50;100.00;97605.16;5109896;28;20223;-50
2023/03/27 16:45:41;;;;;;;16.77;12.20;;;;;;;12.65;100.00;97587.66;5106354;28;20294;-50
2023/03/27 16:48:15;;;;;;;25.50;14.90;;;;;;;12.64;100.00;97565.19;5101405;28;20236;-51
2023/03/27 16:50:49;;;;;;;8.97;7.53;;;;;;;12.49;100.00;97546.25;5105884;28;20217;-50
2023/03/27 16:53:19;;;;;;;8.23;6.63;;;;;;;12.47;100.00;97544.69;5104342;28;20604;-50
2023/03/27 16:56:08;;;;;;;6.50;5.90;;;;;;;12.39;100.00;97559.97;5106961;28;20233;-50
2023/03/27 16:58:36;;;;;;;9.43;6.97;;;;;;;12.38;100.00;97595.56;5104397;28;20263;-50
2023/03/27 17:01:08;;;;;;;10.77;7.00;;;;;;;12.32;100.00;97602.00;5095804;28;20440;-50
2023/03/27 17:03:58;;;;;;;14.67;8.20;;;;;;;12.24;100.00;97595.66;5088476;28;20231;-53
2023/03/27 17:06:45;;;;;;;10.27;7.90;;;;;;;12.28;100.00;97592.75;5085010;28;20227;-56
2023/03/27 17:09:31;;;;;;;10.17;8.00;;;;;;;12.39;100.00;97597.25;5086954;28;20400;-51
2023/03/27 17:12:11;;;;;;;9.87;7.83;;;;;;;12.43;100.00;97600.44;5087960;28;20221;-50
2023/03/27 17:14:51;;;;;;;11.53;7.13;;;;;;;12.47;100.00;97625.34;5086830;28;20218;-51
2023/03/27 17:20:20;;;;;;;12.27;8.63;;;;;;;12.59;100.00;97669.59;5087128;28;20264;-51
2023/03/27 17:22:57;;;;;;;13.83;8.70;;;;;;;12.43;100.00;97675.91;5087817;28;20277;-50
2023/03/27 17:25:26;;;;;;;8.70;7.80;;;;;;;12.35;100.00;97674.66;5087405;28;20223;-52
2023/03/27 17:28:05;;;;;;;11.40;9.10;;;;;;;12.30;100.00;97674.09;5088368;28;20223;-54
2023/03/27 17:30:35;;;;;;;12.83;9.50;;;;;;;12.26;100.00;97684.81;5088399;28;20223;-51